San Diego State University, California
Current Conditions -  °F | °C
As of 3:56 PM on Sunday 21 Dec 2014 (Local Time) from KNRS Reporting Station
Clear Clear  
Wind Chill: 65°   Ceiling: Unl
Heat Index: 65°   Visibility: NA
Dew Point: 56°   Wind: 10mph
Humidity: 73%   Direction: 310°NW
Pressure: 30.05"   Gusts: NA
Location:  32.6353°N, 117.099°W
Report Text: KNRS 212356Z AUTO 31009KT CLR 18/13 A3005 RMK AO2 SLP175 T01830133 10189 20172 55009 $
Loading
Personal Weather Stations






























Interactive Weather Map New forecast layout! Learn more

10-Day Weather Forecast

Advertisements
Track Severe Weather on mobile